KRP weather

Karup Airport
Karup, Central Jutland, Denmark

Public forecast

Using degrees Celsius for public forecast. Weather courtesy of forecast.io.

Current aviation weather report (METAR) for Karup Airport

Retrieved 2020/02/17 06:23 UTC (0 seconds ago):

EKKA 170623Z AUTO 23023G34KT 9999 BKN032/// 07/02 Q0993 TEMPO 24025G40KT

Aviation forecast (TAF) for Karup Airport

Retrieved 2020/02/17 06:31 UTC (0 seconds ago):

TAF EKKA 170524Z 1706/1806 23020G30KT 9999 BKN020 TEMPO 1706/1716 24025G42KT 6000 -SHRA FEW020CB TEMPO 1716/1718 24018G32KT FEW020TCU BECMG 1720/1722 23015KT TEMPO 1802/1806 25015G28KT